Time;durP1;ratioP1;P1;durP2;ratioP2;P2;SDS_P1;SDS_P2;PMS_P1;PMS_P2;Temp;Humidity;BMP_temperature;BMP_pressure;BME280_temperature;BME280_humidity;BME280_pressure;Samples;Min_cycle;Max_cycle;Signal;HPM_P1;HPM_P2
2022/03/11 00:00:35;;;;;;;;;43.25;34.00;6.30;32.90;;;;;;5034855;28;8936;-64
2022/03/11 00:03:01;;;;;;;;;38.25;34.25;6.60;32.80;;;;;;5035579;28;8915;-64
2022/03/11 00:05:26;;;;;;;;;49.75;45.00;6.80;32.60;;;;;;5041170;28;8776;-63
2022/03/11 00:07:52;;;;;;;;;54.50;45.75;6.40;33.00;;;;;;5043618;28;8776;-64
2022/03/11 00:10:18;;;;;;;;;51.75;42.75;6.50;33.70;;;;;;5045648;28;8848;-64
2022/03/11 00:12:44;;;;;;;;;48.50;45.00;6.70;33.40;;;;;;5034754;28;8793;-63
2022/03/11 00:15:10;;;;;;;;;48.25;44.25;6.90;33.50;;;;;;5034729;28;8778;-64
2022/03/11 00:17:35;;;;;;;;;43.50;41.00;6.90;33.10;;;;;;5034667;28;8771;-63
2022/03/11 00:20:02;;;;;;;;;48.50;39.50;6.80;33.80;;;;;;5034867;28;8790;-65
2022/03/11 00:22:28;;;;;;;;;43.50;39.00;6.80;33.20;;;;;;5034893;28;9432;-64
2022/03/11 00:24:55;;;;;;;;;34.00;31.25;6.30;33.60;;;;;;5034677;28;8879;-64
2022/03/11 00:27:21;;;;;;;;;31.50;30.50;4.70;35.50;;;;;;5034559;28;8774;-64
2022/03/11 00:29:47;;;;;;;;;34.25;34.00;4.70;36.60;;;;;;5034506;28;8762;-64
2022/03/11 00:32:12;;;;;;;;;38.00;35.50;4.80;37.00;;;;;;5034753;28;8866;-64
2022/03/11 00:34:38;;;;;;;;;34.75;34.75;5.40;35.80;;;;;;5034364;28;8785;-64
2022/03/11 00:37:04;;;;;;;;;39.25;33.25;5.80;35.40;;;;;;5034345;28;8770;-64
2022/03/11 00:39:30;;;;;;;;;37.25;28.75;6.10;34.60;;;;;;5034579;28;8806;-64
2022/03/11 00:41:55;;;;;;;;;38.50;34.75;6.20;34.50;;;;;;5034346;28;8767;-65
2022/03/11 00:44:21;;;;;;;;;37.50;34.50;6.10;34.40;;;;;;5034355;28;9506;-64
2022/03/11 00:46:47;;;;;;;;;40.50;37.50;6.00;34.20;;;;;;5034517;28;8762;-64
2022/03/11 00:49:13;;;;;;;;;51.75;45.25;5.50;35.50;;;;;;5034264;28;8766;-64
2022/03/11 00:51:39;;;;;;;;;55.50;47.75;5.00;36.50;;;;;;5034226;28;8774;-64
2022/03/11 00:54:04;;;;;;;;;53.25;44.25;4.70;37.10;;;;;;5034036;28;8829;-64
2022/03/11 00:56:31;;;;;;;;;24.00;22.25;3.60;39.40;;;;;;5034218;28;8774;-64
2022/03/11 00:58:57;;;;;;;;;44.75;39.25;3.10;40.90;;;;;;5034084;28;8806;-64
2022/03/11 01:01:23;;;;;;;;;39.25;36.75;3.70;40.30;;;;;;5034125;28;8774;-64
2022/03/11 01:03:49;;;;;;;;;34.25;31.75;3.60;39.60;;;;;;5034130;28;8774;-64
2022/03/11 01:06:15;;;;;;;;;28.25;27.75;3.80;40.10;;;;;;5034108;28;8847;-64
2022/03/11 01:08:41;;;;;;;;;24.75;24.50;4.50;38.50;;;;;;5034075;28;8774;-64
2022/03/11 01:11:11;;;;;;;;;34.25;30.75;5.20;36.80;;;;;;5034165;28;8866;-64
2022/03/11 01:13:38;;;;;;;;;30.25;29.00;5.50;36.00;;;;;;5034059;28;8876;-64
2022/03/11 01:16:04;;;;;;;;;34.50;31.50;4.90;35.70;;;;;;5034115;28;9356;-63
2022/03/11 01:18:31;;;;;;;;;33.25;31.00;5.10;35.70;;;;;;5033962;28;8786;-63
2022/03/11 01:20:57;;;;;;;;;35.75;30.75;4.50;36.30;;;;;;5033995;28;8778;-63
2022/03/11 01:23:24;;;;;;;;;38.00;37.00;4.50;37.60;;;;;;5034165;28;8774;-63
2022/03/11 01:25:49;;;;;;;;;23.50;23.50;4.80;37.00;;;;;;5033936;28;8952;-63
2022/03/11 01:28:15;;;;;;;;;36.75;35.25;4.80;36.80;;;;;;5033912;28;8877;-64
2022/03/11 01:30:41;;;;;;;;;42.50;38.00;4.90;36.70;;;;;;5033898;28;8762;-63
2022/03/11 01:33:07;;;;;;;;;41.50;38.25;5.10;36.40;;;;;;5033940;28;8778;-63
2022/03/11 01:35:33;;;;;;;;;42.00;40.00;4.60;36.60;;;;;;5035044;28;8773;-63
2022/03/11 01:37:59;;;;;;;;;43.25;40.00;4.10;38.20;;;;;;5047757;28;9409;-63
2022/03/11 01:40:25;;;;;;;;;42.75;40.75;3.80;39.20;;;;;;5038773;28;9460;-64
2022/03/11 01:42:51;;;;;;;;;44.00;43.25;3.90;39.20;;;;;;5037625;28;8755;-64
2022/03/11 01:45:17;;;;;;;;;41.50;40.50;4.40;37.80;;;;;;5037297;28;8766;-64
2022/03/11 01:47:43;;;;;;;;;50.50;46.75;4.50;38.50;;;;;;5037693;28;8789;-63
2022/03/11 01:50:09;;;;;;;;;49.25;45.25;4.70;38.10;;;;;;5037643;28;9478;-63
2022/03/11 01:52:38;;;;;;;;;53.00;45.00;4.50;38.80;;;;;;5037330;28;8774;-64
2022/03/11 01:55:04;;;;;;;;;51.75;45.50;4.60;38.80;;;;;;5037024;28;8830;-63
2022/03/11 01:57:37;;;;;;;;;55.25;48.75;5.10;37.90;;;;;;5037455;28;8786;-63
2022/03/11 02:00:04;;;;;;;;;53.75;45.75;5.10;37.80;;;;;;5037299;28;8813;-63
2022/03/11 02:02:30;;;;;;;;;39.25;36.50;4.50;37.90;;;;;;5037398;28;8790;-63
2022/03/11 02:04:57;;;;;;;;;45.75;42.50;4.10;39.10;;;;;;5037127;28;8871;-63
2022/03/11 02:07:23;;;;;;;;;45.75;41.25;4.40;39.70;;;;;;5037307;28;8778;-64
2022/03/11 02:09:49;;;;;;;;;50.00;42.50;4.40;39.20;;;;;;5019557;28;8774;-63
2022/03/11 02:12:32;;;;;;;;;44.25;42.00;4.60;39.00;;;;;;5036889;28;8766;-64
2022/03/11 02:15:01;;;;;;;;;36.25;34.75;4.40;39.20;;;;;;5037215;28;8766;-64
2022/03/11 02:17:27;;;;;;;;;42.00;39.00;4.10;40.20;;;;;;5036829;28;8793;-64
2022/03/11 02:19:52;;;;;;;;;46.00;42.75;4.00;40.80;;;;;;5036758;28;8814;-64
2022/03/11 02:22:23;;;;;;;;;40.25;39.25;4.10;40.50;;;;;;5036786;28;8771;-65
2022/03/11 02:24:49;;;;;;;;;46.75;41.25;4.10;40.30;;;;;;5036700;28;8829;-64
2022/03/11 02:27:15;;;;;;;;;35.50;33.25;3.60;41.30;;;;;;5037081;28;8746;-63
2022/03/11 02:29:41;;;;;;;;;43.50;42.75;3.30;41.60;;;;;;5036672;28;8782;-63
2022/03/11 02:32:08;;;;;;;;;39.25;34.25;2.90;43.50;;;;;;5036606;28;8781;-64
2022/03/11 02:34:37;;;;;;;;;32.00;29.00;2.40;45.10;;;;;;5036817;28;8843;-64
2022/03/11 02:37:09;;;;;;;;;31.25;30.25;2.10;45.70;;;;;;5036582;28;8758;-64
2022/03/11 02:39:35;;;;;;;;;39.50;36.25;2.20;45.40;;;;;;5036698;28;8797;-64
2022/03/11 02:42:03;;;;;;;;;40.25;35.75;2.60;44.60;;;;;;5036435;28;8782;-63
2022/03/11 02:44:31;;;;;;;;;28.75;25.00;2.20;45.60;;;;;;5036366;28;8778;-63
2022/03/11 02:46:59;;;;;;;;;18.75;14.75;1.80;46.60;;;;;;5035136;28;8920;-63
2022/03/11 02:49:29;;;;;;;;;38.25;35.25;2.00;47.20;;;;;;5036362;28;9455;-63
2022/03/11 02:51:56;;;;;;;;;39.00;38.00;2.50;46.10;;;;;;5036324;28;8758;-64
2022/03/11 02:54:24;;;;;;;;;34.50;32.50;2.80;45.00;;;;;;5036081;28;8853;-63
2022/03/11 02:56:50;;;;;;;;;36.00;33.00;2.80;44.80;;;;;;5036200;28;8766;-62
2022/03/11 02:59:15;;;;;;;;;32.00;29.75;2.60;45.20;;;;;;5036355;28;8806;-62
2022/03/11 03:01:41;;;;;;;;;42.50;33.00;2.00;46.60;;;;;;5018256;28;8801;-63
2022/03/11 03:04:07;;;;;;;;;29.50;27.75;1.80;47.20;;;;;;5036278;28;8774;-63
2022/03/11 03:06:33;;;;;;;;;43.75;37.00;1.50;48.50;;;;;;5036223;28;8782;-62
2022/03/11 03:08:59;;;;;;;;;33.75;28.00;1.10;49.40;;;;;;5035978;28;9434;-63
2022/03/11 03:11:24;;;;;;;;;26.50;23.50;1.40;49.40;;;;;;5035885;28;8774;-65
2022/03/11 03:13:50;;;;;;;;;28.50;26.50;1.30;48.90;;;;;;5035852;28;8775;-64
2022/03/11 03:16:16;;;;;;;;;32.00;28.00;1.20;49.20;;;;;;5036058;28;8865;-64
2022/03/11 03:18:42;;;;;;;;;37.75;35.25;1.80;48.50;;;;;;5035648;28;8829;-64
2022/03/11 03:21:07;;;;;;;;;29.25;26.25;1.80;47.70;;;;;;5035709;28;8856;-64
2022/03/11 03:23:33;;;;;;;;;34.25;29.00;1.70;48.50;;;;;;5035749;28;8817;-64
2022/03/11 03:26:01;;;;;;;;;26.75;26.25;1.50;47.60;;;;;;5035831;28;8762;-64
2022/03/11 03:28:27;;;;;;;;;33.00;30.25;1.20;48.70;;;;;;5035536;28;8889;-64
2022/03/11 03:30:53;;;;;;;;;30.00;24.75;0.90;49.00;;;;;;5035485;28;8881;-64
2022/03/11 03:33:18;;;;;;;;;34.50;33.00;0.50;50.50;;;;;;5035460;28;8804;-64
2022/03/11 03:35:44;;;;;;;;;30.75;29.75;0.50;50.90;;;;;;5035393;28;8779;-64
2022/03/11 03:38:10;;;;;;;;;30.00;30.00;0.80;49.80;;;;;;5035307;28;8837;-64
2022/03/11 03:40:36;;;;;;;;;32.75;31.25;1.10;49.20;;;;;;5035477;28;8778;-63
2022/03/11 03:43:02;;;;;;;;;30.25;29.00;0.90;48.80;;;;;;5035455;28;8770;-63
2022/03/11 03:45:28;;;;;;;;;31.75;30.00;1.20;48.30;;;;;;5035284;28;8786;-62
2022/03/11 03:47:54;;;;;;;;;26.00;25.50;1.00;47.90;;;;;;5035683;28;8762;-62
2022/03/11 03:50:20;;;;;;;;;27.25;25.00;0.90;48.20;;;;;;5035111;28;8782;-62
2022/03/11 03:52:46;;;;;;;;;36.00;30.25;1.20;47.30;;;;;;5035083;28;8815;-63
2022/03/11 03:55:12;;;;;;;;;32.50;30.00;1.50;46.30;;;;;;5034860;28;8845;-63
2022/03/11 03:57:38;;;;;;;;;28.50;24.00;1.60;46.40;;;;;;5034959;28;8808;-63
2022/03/11 04:00:06;;;;;;;;;32.00;27.75;0.90;47.00;;;;;;5034494;28;8810;-63
2022/03/11 04:02:32;;;;;;;;;34.25;29.75;1.30;47.70;;;;;;5046214;28;8851;-63
2022/03/11 04:04:58;;;;;;;;;25.50;23.50;1.50;46.50;;;;;;5034905;28;9430;-64
2022/03/11 04:07:24;;;;;;;;;34.75;32.75;2.00;45.20;;;;;;5034889;28;8771;-63
2022/03/11 04:09:50;;;;;;;;;33.50;30.00;2.40;44.10;;;;;;5034997;28;8784;-64
2022/03/11 04:12:15;;;;;;;;;30.25;26.75;2.60;42.90;;;;;;5034654;28;8774;-63
2022/03/11 04:14:42;;;;;;;;;35.00;30.50;2.60;42.50;;;;;;5034697;28;8778;-64
2022/03/11 04:17:08;;;;;;;;;34.00;33.75;2.70;42.50;;;;;;5034862;28;8796;-63
2022/03/11 04:19:34;;;;;;;;;35.00;35.00;2.50;41.90;;;;;;5034528;28;8806;-63
2022/03/11 04:22:00;;;;;;;;;35.75;31.00;1.70;43.30;;;;;;5034645;28;8817;-63
2022/03/11 04:24:26;;;;;;;;;33.50;29.25;2.00;44.00;;;;;;5034777;28;8822;-62
2022/03/11 04:26:52;;;;;;;;;26.50;25.00;1.90;43.40;;;;;;5034521;28;8758;-63
2022/03/11 04:29:18;;;;;;;;;29.75;28.25;1.00;44.70;;;;;;5034559;28;8766;-63
2022/03/11 04:31:44;;;;;;;;;36.00;29.75;0.70;46.70;;;;;;5034761;28;8758;-62
2022/03/11 04:34:10;;;;;;;;;28.00;28.00;0.90;46.70;;;;;;5034520;28;8848;-63
2022/03/11 04:36:38;;;;;;;;;29.25;24.75;1.10;46.40;;;;;;5034391;28;8871;-63
2022/03/11 04:39:05;;;;;;;;;27.50;27.00;1.20;45.70;;;;;;5034329;28;8916;-63
2022/03/11 04:41:33;;;;;;;;;31.50;28.50;0.70;45.60;;;;;;5034322;28;8797;-63
2022/03/11 04:43:59;;;;;;;;;30.75;27.75;0.60;46.40;;;;;;5034633;28;8762;-63
2022/03/11 04:46:25;;;;;;;;;31.00;29.25;0.60;46.10;;;;;;5034315;28;8800;-62
2022/03/11 04:48:51;;;;;;;;;28.75;26.75;0.50;46.70;;;;;;5034238;28;8762;-62
2022/03/11 04:51:17;;;;;;;;;28.00;21.25;0.60;46.60;;;;;;5034503;28;8789;-63
2022/03/11 04:53:42;;;;;;;;;30.00;28.50;0.30;47.30;;;;;;5034206;28;8810;-63
2022/03/11 04:56:08;;;;;;;;;32.25;28.00;0.10;48.10;;;;;;5034205;28;8770;-63
2022/03/11 04:58:34;;;;;;;;;19.50;19.50;-0.20;49.60;;;;;;5034374;28;8806;-63
2022/03/11 05:01:00;;;;;;;;;31.50;28.50;-0.20;49.00;;;;;;5036605;28;9605;-63
2022/03/11 05:03:26;;;;;;;;;30.50;29.00;0.00;48.30;;;;;;5043478;28;8809;-62
2022/03/11 05:05:52;;;;;;;;;32.50;32.00;-0.10;48.60;;;;;;5037973;28;8819;-64
2022/03/11 05:08:17;;;;;;;;;24.50;23.50;-0.50;48.90;;;;;;5034196;28;8854;-62
2022/03/11 05:10:43;;;;;;;;;32.75;29.50;-0.20;49.00;;;;;;5035344;28;8831;-63
2022/03/11 05:13:09;;;;;;;;;29.25;29.25;-0.40;49.50;;;;;;5038061;28;8781;-63
2022/03/11 05:15:38;;;;;;;;;29.00;25.75;0.10;49.20;;;;;;5037903;28;8817;-63
2022/03/11 05:18:04;;;;;;;;;36.00;33.75;0.00;48.40;;;;;;5038032;28;8759;-63
2022/03/11 05:20:30;;;;;;;;;29.75;25.75;0.00;49.20;;;;;;5039184;28;8793;-62
2022/03/11 05:22:56;;;;;;;;;37.75;35.00;0.10;49.20;;;;;;5049106;28;8800;-63
2022/03/11 05:25:22;;;;;;;;;39.25;37.00;0.20;48.70;;;;;;5044512;28;8813;-64
2022/03/11 05:27:48;;;;;;;;;39.25;34.25;0.60;47.90;;;;;;5046393;28;8797;-62
2022/03/11 05:30:14;;;;;;;;;39.75;37.50;1.00;47.50;;;;;;5043611;28;8813;-62
2022/03/11 05:32:44;;;;;;;;;36.75;36.00;0.80;47.00;;;;;;5047088;28;8890;-63
2022/03/11 05:35:11;;;;;;;;;25.00;22.25;0.90;46.90;;;;;;5042496;28;8863;-63
2022/03/11 05:37:37;;;;;;;;;25.50;25.50;0.40;46.90;;;;;;5049920;28;8824;-62
2022/03/11 05:40:04;;;;;;;;;37.75;32.00;0.90;47.40;;;;;;5048771;28;8812;-63
2022/03/11 05:42:30;;;;;;;;;31.50;30.00;1.10;46.90;;;;;;5039065;28;8774;-63
2022/03/11 05:44:55;;;;;;;;;36.25;35.25;0.80;47.10;;;;;;5048704;28;8788;-64
2022/03/11 05:47:21;;;;;;;;;43.25;36.50;0.70;47.80;;;;;;5037422;28;8813;-64
2022/03/11 05:49:47;;;;;;;;;34.50;32.00;0.50;47.70;;;;;;5037476;28;8812;-63
2022/03/11 05:52:13;;;;;;;;;38.00;36.25;0.70;48.20;;;;;;5037388;28;8881;-63
2022/03/11 05:54:39;;;;;;;;;34.25;33.25;0.40;48.10;;;;;;5037230;28;8965;-62
2022/03/11 05:57:05;;;;;;;;;37.75;37.00;0.20;48.40;;;;;;5037502;28;8782;-63
2022/03/11 05:59:32;;;;;;;;;42.75;39.75;0.10;49.20;;;;;;5037367;28;9456;-65
2022/03/11 06:01:58;;;;;;;;;36.25;34.25;0.30;49.50;;;;;;5044753;28;8893;-70
2022/03/11 06:04:24;;;;;;;;;40.25;34.00;0.40;48.70;;;;;;5040777;28;8861;-62
2022/03/11 06:06:50;;;;;;;;;36.75;33.50;0.30;48.90;;;;;;5036887;28;8920;-62
2022/03/11 06:09:16;;;;;;;;;34.75;28.25;0.30;49.40;;;;;;5036916;28;8770;-64
2022/03/11 06:11:42;;;;;;;;;46.00;41.75;0.30;49.30;;;;;;5037066;28;8823;-64
2022/03/11 06:14:07;;;;;;;;;23.50;23.50;0.70;48.70;;;;;;5036190;28;9492;-63
2022/03/11 06:16:34;;;;;;;;;43.75;35.25;0.90;47.00;;;;;;5036660;28;8766;-64
2022/03/11 06:19:00;;;;;;;;;35.75;31.25;0.40;48.40;;;;;;5036738;28;8987;-64
2022/03/11 06:21:26;;;;;;;;;37.25;36.50;0.60;48.70;;;;;;5036765;28;8873;-63
2022/03/11 06:23:52;;;;;;;;;34.25;33.00;0.30;48.80;;;;;;5037043;28;8791;-63
2022/03/11 06:26:18;;;;;;;;;38.00;36.25;0.50;49.30;;;;;;5036964;28;8786;-64
2022/03/11 06:28:44;;;;;;;;;34.50;31.50;0.60;48.40;;;;;;5036687;28;8786;-63
2022/03/11 06:31:11;;;;;;;;;39.25;35.75;0.50;48.40;;;;;;5036610;28;8937;-63
2022/03/11 06:33:37;;;;;;;;;46.00;44.50;0.20;48.70;;;;;;5036824;28;9590;-64
2022/03/11 06:36:04;;;;;;;;;34.25;33.25;0.40;48.70;;;;;;5036294;28;8770;-64
2022/03/11 06:38:30;;;;;;;;;26.00;24.25;0.40;48.70;;;;;;5036378;28;8824;-64
2022/03/11 06:40:56;;;;;;;;;35.50;30.50;0.60;48.30;;;;;;5036422;28;9516;-64
2022/03/11 06:43:22;;;;;;;;;44.00;39.25;0.30;48.80;;;;;;5036349;28;8780;-63
2022/03/11 06:45:48;;;;;;;;;37.25;35.00;0.10;49.20;;;;;;5036384;28;8782;-63
2022/03/11 06:48:15;;;;;;;;;33.75;31.50;0.10;49.30;;;;;;5036576;28;9531;-63
2022/03/11 06:50:41;;;;;;;;;28.50;27.00;0.50;47.70;;;;;;5034810;28;8782;-63
2022/03/11 06:53:06;;;;;;;;;39.00;35.50;0.10;48.00;;;;;;5036158;28;8909;-63
2022/03/11 06:55:32;;;;;;;;;40.00;35.25;-0.10;49.10;;;;;;5036125;28;8805;-64
2022/03/11 06:57:59;;;;;;;;;46.75;42.00;0.90;48.40;;;;;;5036092;28;8876;-64
2022/03/11 07:00:25;;;;;;;;;53.25;45.50;1.40;46.10;;;;;;5036146;28;8774;-64
2022/03/11 07:02:51;;;;;;;;;38.25;36.75;2.00;45.30;;;;;;5036366;28;8785;-63
2022/03/11 07:05:17;;;;;;;;;45.25;43.25;2.50;43.50;;;;;;5035544;28;8766;-64
2022/03/11 07:07:43;;;;;;;;;36.00;33.75;2.50;42.40;;;;;;5035938;28;8793;-63
2022/03/11 07:10:10;;;;;;;;;42.00;38.75;1.90;43.10;;;;;;5035983;28;8815;-64
2022/03/11 07:12:36;;;;;;;;;33.25;30.50;1.40;45.10;;;;;;5035883;28;8789;-64
2022/03/11 07:15:05;;;;;;;;;35.50;32.75;1.40;44.70;;;;;;5036133;28;9466;-64
2022/03/11 07:17:31;;;;;;;;;40.00;38.00;1.70;44.80;;;;;;5035965;28;8766;-64
2022/03/11 07:19:57;;;;;;;;;43.50;37.00;1.00;45.70;;;;;;5035331;28;9492;-64
2022/03/11 07:22:23;;;;;;;;;38.50;35.25;0.60;47.50;;;;;;5035695;28;8762;-64
2022/03/11 07:24:49;;;;;;;;;35.50;26.50;0.30;48.10;;;;;;5036095;28;8812;-64
2022/03/11 07:27:15;;;;;;;;;35.00;30.50;0.00;48.50;;;;;;5035617;28;8770;-64
2022/03/11 07:29:41;;;;;;;;;43.50;37.75;0.50;49.40;;;;;;5035379;28;8801;-64
2022/03/11 07:32:08;;;;;;;;;41.75;38.50;1.00;47.20;;;;;;5035726;28;8778;-64
2022/03/11 07:34:34;;;;;;;;;40.75;37.00;1.40;45.80;;;;;;5034228;28;8759;-64
2022/03/11 07:37:00;;;;;;;;;40.00;36.75;0.90;46.40;;;;;;5035430;28;8755;-64
2022/03/11 07:39:26;;;;;;;;;39.00;37.00;0.50;47.90;;;;;;5035229;28;8848;-64
2022/03/11 07:41:52;;;;;;;;;36.00;33.50;0.70;49.00;;;;;;5035212;28;8743;-64
2022/03/11 07:44:20;;;;;;;;;32.75;32.25;1.30;46.80;;;;;;5035508;28;8789;-64
2022/03/11 07:46:46;;;;;;;;;29.00;27.75;1.50;45.30;;;;;;5035183;28;8785;-64
2022/03/11 07:49:12;;;;;;;;;42.50;39.00;1.10;45.40;;;;;;5034919;28;9919;-64
2022/03/11 07:51:39;;;;;;;;;41.75;38.50;0.80;47.20;;;;;;5035119;28;8758;-64
2022/03/11 07:54:05;;;;;;;;;40.00;40.00;1.10;47.30;;;;;;5034727;28;8838;-64
2022/03/11 07:56:31;;;;;;;;;40.00;38.50;0.70;47.20;;;;;;5034895;28;8763;-63
2022/03/11 07:58:57;;;;;;;;;39.00;35.00;0.60;47.80;;;;;;5034907;28;8807;-64
2022/03/11 08:01:23;;;;;;;;;31.50;30.00;1.00;46.60;;;;;;5035014;28;8782;-63
2022/03/11 08:03:49;;;;;;;;;39.75;37.50;0.80;46.60;;;;;;5034560;28;8766;-63
2022/03/11 08:06:15;;;;;;;;;34.00;33.00;0.80;46.00;;;;;;5035062;28;8872;-63
2022/03/11 08:08:42;;;;;;;;;41.00;39.00;0.50;46.70;;;;;;5034758;28;8770;-63
2022/03/11 08:11:08;;;;;;;;;43.50;36.50;0.70;46.90;;;;;;5035098;28;9511;-63
2022/03/11 08:13:34;;;;;;;;;40.75;33.25;1.10;46.80;;;;;;5034748;28;8786;-64
2022/03/11 08:16:01;;;;;;;;;47.50;43.25;1.10;46.50;;;;;;5034481;28;8770;-64
2022/03/11 08:18:27;;;;;;;;;46.00;40.00;1.30;46.50;;;;;;5034308;28;8806;-64
2022/03/11 08:20:53;;;;;;;;;43.25;41.00;1.80;45.70;;;;;;5034704;28;8771;-64
2022/03/11 08:23:19;;;;;;;;;34.50;31.25;1.80;45.20;;;;;;5034476;28;8813;-64
2022/03/11 08:25:45;;;;;;;;;44.25;37.75;1.90;45.20;;;;;;5034497;28;8762;-64
2022/03/11 08:28:13;;;;;;;;;44.00;40.00;2.30;44.60;;;;;;5034472;28;8777;-64
2022/03/11 08:30:43;;;;;;;;;44.50;43.00;2.50;44.10;;;;;;5034625;28;8759;-64
2022/03/11 08:33:13;;;;;;;;;36.75;33.25;2.40;44.20;;;;;;5034220;28;8742;-64
2022/03/11 08:35:40;;;;;;;;;33.75;31.00;2.20;43.80;;;;;;5034476;28;8770;-64
2022/03/11 08:38:06;;;;;;;;;32.25;32.25;2.50;44.10;;;;;;5034271;28;8781;-64
2022/03/11 08:40:35;;;;;;;;;44.50;41.00;2.20;44.40;;;;;;5034623;28;8770;-64
2022/03/11 08:43:02;;;;;;;;;45.50;40.50;2.50;44.70;;;;;;5034071;28;8766;-63
2022/03/11 08:45:28;;;;;;;;;38.50;31.75;1.90;45.10;;;;;;5034347;28;8789;-63
2022/03/11 08:47:54;;;;;;;;;40.00;34.50;2.00;44.80;;;;;;5034529;28;8797;-64
2022/03/11 08:50:22;;;;;;;;;36.50;31.50;2.00;45.40;;;;;;5034373;28;8774;-64
2022/03/11 08:52:48;;;;;;;;;46.00;42.75;1.40;45.80;;;;;;5034237;28;8774;-64
2022/03/11 08:55:14;;;;;;;;;45.25;41.00;1.20;46.70;;;;;;5034129;28;8876;-65
2022/03/11 08:57:41;;;;;;;;;44.75;42.25;1.90;46.20;;;;;;5034256;28;8774;-65
2022/03/11 09:00:14;;;;;;;;;44.00;39.75;2.00;45.20;;;;;;5034243;28;9474;-64
2022/03/11 09:02:40;;;;;;;;;34.00;32.50;2.20;45.60;;;;;;5034128;28;8797;-65
2022/03/11 09:05:07;;;;;;;;;45.00;40.00;2.50;44.10;;;;;;5034148;28;8759;-65
2022/03/11 09:07:33;;;;;;;;;51.00;42.00;2.40;44.20;;;;;;5033913;28;8794;-65
2022/03/11 09:10:00;;;;;;;;;44.50;38.75;2.70;44.40;;;;;;5034153;28;8774;-65
2022/03/11 09:12:26;;;;;;;;;40.00;38.50;2.80;43.70;;;;;;5033976;28;8778;-65
2022/03/11 09:14:52;;;;;;;;;46.50;42.50;2.30;44.60;;;;;;5034011;28;8844;-65
2022/03/11 09:17:18;;;;;;;;;54.75;44.75;2.80;45.30;;;;;;5034006;28;8781;-65
2022/03/11 09:19:44;;;;;;;;;48.50;42.25;3.40;44.80;;;;;;5033951;28;8794;-65
2022/03/11 09:22:14;;;;;;;;;42.00;39.50;3.40;42.40;;;;;;5034179;28;8797;-65
2022/03/11 09:24:41;;;;;;;;;44.25;42.50;2.80;42.70;;;;;;5034301;28;8841;-65
2022/03/11 09:27:09;;;;;;;;;41.75;40.00;2.70;44.70;;;;;;5033957;28;8793;-64
2022/03/11 09:29:35;;;;;;;;;34.50;30.50;2.80;44.30;;;;;;5033917;28;9447;-65
2022/03/11 09:32:01;;;;;;;;;42.25;39.75;2.90;43.80;;;;;;5033873;28;8777;-65
2022/03/11 09:34:27;;;;;;;;;45.75;44.50;3.10;43.40;;;;;;5033790;28;8948;-65
2022/03/11 09:36:53;;;;;;;;;58.25;46.25;3.20;44.30;;;;;;5033768;28;8762;-66
2022/03/11 09:39:23;;;;;;;;;34.00;32.50;3.90;42.90;;;;;;5033736;28;8790;-65
2022/03/11 09:41:49;;;;;;;;;48.00;42.25;4.60;41.30;;;;;;5034042;28;8836;-65
2022/03/11 09:44:17;;;;;;;;;55.75;46.00;4.40;40.60;;;;;;5034004;28;8770;-65
2022/03/11 09:46:44;;;;;;;;;50.25;43.75;4.70;40.10;;;;;;5033763;28;8754;-65
2022/03/11 09:49:14;;;;;;;;;46.00;44.50;4.60;40.40;;;;;;5033910;28;8868;-65
2022/03/11 09:51:41;;;;;;;;;37.75;35.00;4.70;40.20;;;;;;5033556;28;8769;-65
2022/03/11 09:54:09;;;;;;;;;47.25;40.50;4.60;39.50;;;;;;5033405;28;8858;-65
2022/03/11 09:56:35;;;;;;;;;43.25;38.75;3.90;41.00;;;;;;5034593;28;8871;-65
2022/03/11 09:59:01;;;;;;;;;44.75;40.75;4.40;40.00;;;;;;5037199;28;8798;-65
2022/03/11 10:01:27;;;;;;;;;30.75;25.75;4.70;40.50;;;;;;5037234;28;8766;-65
2022/03/11 10:03:53;;;;;;;;;40.75;38.50;4.70;41.60;;;;;;5037415;28;8880;-65
2022/03/11 10:06:41;;;;;;;;;39.25;36.50;4.80;40.10;;;;;;5037003;28;8851;-65
2022/03/11 10:09:30;;;;;;;;;38.50;35.00;5.40;39.90;;;;;;5037300;28;8876;-65
2022/03/11 10:11:56;;;;;;;;;39.75;39.00;5.30;37.80;;;;;;5037054;28;8762;-65
2022/03/11 10:14:36;;;;;;;;;40.25;33.75;4.90;38.70;;;;;;5037036;28;8759;-65
2022/03/11 10:17:04;;;;;;;;;38.75;36.00;4.90;39.50;;;;;;5037018;28;8786;-65
2022/03/11 10:19:30;;;;;;;;;50.50;42.50;5.60;38.50;;;;;;5036820;28;8829;-65
2022/03/11 10:21:59;;;;;;;;;35.50;34.75;6.10;38.70;;;;;;5035219;28;8771;-65
2022/03/11 10:24:26;;;;;;;;;48.50;41.75;6.60;35.90;;;;;;5036791;28;8928;-65
2022/03/11 10:27:02;;;;;;;;;57.50;46.75;6.30;36.10;;;;;;5036692;28;8766;-65
2022/03/11 10:29:33;;;;;;;;;37.75;33.75;6.90;37.00;;;;;;5036761;28;8767;-65
2022/03/11 10:32:00;;;;;;;;;51.00;43.75;7.60;34.80;;;;;;5036679;28;8804;-65
2022/03/11 10:34:29;;;;;;;;;41.50;37.75;6.90;34.80;;;;;;5036768;28;8747;-65
2022/03/11 10:36:59;;;;;;;;;39.50;37.75;7.50;35.90;;;;;;5036627;28;8780;-65
2022/03/11 10:39:36;;;;;;;;;47.50;38.50;7.70;33.60;;;;;;5036473;28;8810;-65
2022/03/11 10:42:18;;;;;;;;;40.25;36.00;8.40;32.00;;;;;;5036569;28;8754;-65
2022/03/11 10:45:10;;;;;;;;;41.50;36.50;8.10;31.60;;;;;;5036401;28;8793;-65
2022/03/11 10:47:38;;;;;;;;;44.50;40.00;7.90;33.30;;;;;;5036609;28;8821;-66
2022/03/11 10:50:06;;;;;;;;;45.00;37.00;7.70;33.00;;;;;;5036562;28;9601;-65
2022/03/11 10:52:40;;;;;;;;;40.25;35.50;8.50;34.00;;;;;;5036255;28;8766;-65
2022/03/11 10:55:33;;;;;;;;;46.00;38.00;9.30;30.40;;;;;;5036073;28;8872;-65
2022/03/11 10:58:01;;;;;;;;;37.50;34.00;10.10;29.80;;;;;;5036444;28;8797;-65
2022/03/11 11:00:33;;;;;;;;;40.00;36.25;9.80;29.20;;;;;;5036211;28;8822;-65
2022/03/11 11:03:01;;;;;;;;;35.00;30.75;10.00;30.10;;;;;;5036296;28;8855;-65
2022/03/11 11:05:28;;;;;;;;;41.75;35.75;10.00;28.90;;;;;;5035991;28;8810;-66
2022/03/11 11:07:56;;;;;;;;;31.25;29.00;10.60;29.00;;;;;;5034850;28;8872;-66
2022/03/11 11:10:23;;;;;;;;;31.00;28.00;10.80;28.40;;;;;;5036271;28;8912;-66
2022/03/11 11:12:49;;;;;;;;;32.33;31.33;10.20;29.00;;;;;;5035834;28;8770;-66
2022/03/11 11:15:16;;;;;;;;;36.00;31.33;10.80;29.20;;;;;;5035785;28;8770;-66
2022/03/11 11:17:44;;;;;;;;;36.67;33.67;12.60;28.30;;;;;;5035664;28;8776;-66
2022/03/11 11:20:44;;;;;;;;;33.67;31.00;18.20;22.80;;;;;;5035630;28;8806;-66
2022/03/11 11:23:10;;;;;;;;;34.00;31.33;23.70;19.40;;;;;;4935793;29;9513;-66
2022/03/11 11:25:37;;;;;;;;;38.33;33.00;26.20;16.90;;;;;;4936188;29;8804;-66
2022/03/11 11:28:10;;;;;;;;;35.67;32.33;27.70;15.40;;;;;;4935878;29;8834;-66
2022/03/11 11:30:36;;;;;;;;;21.33;21.33;25.80;14.90;;;;;;4936096;29;8902;-66
2022/03/11 11:33:03;;;;;;;;;24.00;24.00;26.60;14.50;;;;;;4935780;29;11720;-66
2022/03/11 11:35:30;;;;;;;;;27.00;27.00;27.50;14.20;;;;;;4935892;29;11720;-66
2022/03/11 11:37:58;;;;;;;;;29.00;29.00;29.10;13.80;;;;;;4935886;29;12252;-67
2022/03/11 11:40:28;;;;;;;;;29.67;29.67;29.30;13.30;;;;;;4935778;29;8836;-66
2022/03/11 11:43:13;;;;;;;;;31.00;30.00;27.60;13.80;;;;;;4935856;29;8874;-66
2022/03/11 11:45:43;;;;;;;;;27.67;27.67;28.70;13.70;;;;;;4935532;29;9450;-66
2022/03/11 11:48:33;;;;;;;;;25.67;25.67;31.40;13.30;;;;;;4935627;29;11629;-67
2022/03/11 11:51:28;;;;;;;;;27.33;27.33;28.70;12.00;;;;;;4935475;29;11587;-67
2022/03/11 11:53:56;;;;;;;;;28.00;28.00;23.40;14.60;;;;;;4915026;29;11786;-67
2022/03/11 11:56:28;;;;;;;;;28.00;28.00;22.50;15.00;;;;;;4935694;29;8800;-66
2022/03/11 11:58:56;;;;;;;;;32.67;31.67;19.50;17.00;;;;;;4947621;28;8820;-66
2022/03/11 12:01:47;;;;;;;;;32.33;31.33;16.30;19.50;;;;;;5035084;28;8750;-66
2022/03/11 12:04:31;;;;;;;;;30.67;29.67;14.90;20.40;;;;;;5034873;28;8750;-66
2022/03/11 12:07:02;;;;;;;;;37.33;34.67;13.00;21.80;;;;;;5034813;28;8778;-66
2022/03/11 12:09:45;;;;;;;;;33.00;29.67;13.80;21.90;;;;;;5035017;28;8774;-66
2022/03/11 12:12:22;;;;;;;;;33.00;31.00;14.50;22.10;;;;;;5034751;28;8766;-66
2022/03/11 12:15:00;;;;;;;;;39.00;34.33;16.10;21.80;;;;;;5034925;28;8758;-66
2022/03/11 12:17:41;;;;;;;;;31.67;28.00;17.00;19.40;;;;;;5034620;28;8758;-66
2022/03/11 12:20:31;;;;;;;;;30.00;30.00;13.70;21.60;;;;;;5034333;28;8806;-66
2022/03/11 12:23:12;;;;;;;;;33.00;31.33;15.60;22.50;;;;;;5034579;28;8774;-67
2022/03/11 12:25:46;;;;;;;;;34.67;31.67;20.50;19.00;;;;;;5034526;28;8774;-66
2022/03/11 12:28:28;;;;;;;;;34.67;30.33;20.40;17.00;;;;;;5034727;28;8787;-66
2022/03/11 12:31:16;;;;;;;;;32.00;28.33;23.10;16.20;;;;;;5034697;28;8750;-66
2022/03/11 12:33:44;;;;;;;;;32.00;31.33;24.40;15.40;;;;;;5017677;28;8787;-66
2022/03/11 12:36:16;;;;;;;;;27.33;27.33;26.10;14.90;;;;;;5034470;28;8766;-66
2022/03/11 12:38:43;;;;;;;;;39.00;33.33;28.10;13.90;;;;;;5034308;28;8928;-67
2022/03/11 12:41:17;;;;;;;;;22.67;22.67;28.60;13.30;;;;;;5034163;28;8786;-79
2022/03/11 12:43:44;;;;;;;;;33.33;32.33;24.90;13.70;;;;;;5034755;28;8879;-77
2022/03/11 12:46:11;;;;;;;;;31.00;31.00;19.70;16.20;;;;;;5034750;28;8789;-76
2022/03/11 12:48:39;;;;;;;;;33.00;31.00;17.80;17.70;;;;;;5034342;28;8790;-78